Time;durP1;ratioP1;P1;durP2;ratioP2;P2;SDS_P1;SDS_P2;PMS_P1;PMS_P2;Temp;Humidity;BMP_temperature;BMP_pressure;BME280_temperature;BME280_humidity;BME280_pressure;Samples;Min_cycle;Max_cycle;Signal;HPM_P1;HPM_P2
2023/07/09 00:00:14;;;;;;;6.85;2.10;;;;;;;19.47;68.52;100276.84;5033985;28;20079;-53
2023/07/09 00:02:41;;;;;;;3.55;2.53;;;;;;;19.44;68.05;100278.72;5040117;28;20060;-47
2023/07/09 00:05:13;;;;;;;4.57;2.10;;;;;;;19.39;68.65;100276.28;5046438;28;20514;-52
2023/07/09 00:07:41;;;;;;;3.92;2.75;;;;;;;19.37;68.45;100283.34;5039490;28;20052;-49
2023/07/09 00:10:17;;;;;;;3.60;2.25;;;;;;;19.30;68.44;100290.59;5040523;28;20144;-51
2023/07/09 00:12:45;;;;;;;4.03;3.10;;;;;;;19.29;68.58;100286.25;5042348;28;20050;-42
2023/07/09 00:15:15;;;;;;;5.32;2.75;;;;;;;19.26;68.72;100281.94;5044752;28;20045;-42
2023/07/09 00:17:42;;;;;;;5.53;2.53;;;;;;;19.22;68.41;100285.59;5047034;28;20048;-46
2023/07/09 00:20:15;;;;;;;3.25;1.98;;;;;;;19.17;68.82;100287.53;5045942;28;20763;-46
2023/07/09 00:22:51;;;;;;;7.10;2.35;;;;;;;19.15;68.29;100289.34;5034503;28;20045;-52
2023/07/09 00:25:20;;;;;;;4.47;3.10;;;;;;;19.12;68.36;100284.22;5045781;28;20083;-51
2023/07/09 00:27:49;;;;;;;4.20;3.05;;;;;;;19.07;68.49;100280.88;5038819;28;20103;-42
2023/07/09 00:30:21;;;;;;;4.18;3.10;;;;;;;19.04;68.93;100280.97;5034641;28;20131;-47
2023/07/09 00:32:49;;;;;;;3.55;2.33;;;;;;;18.99;68.33;100289.00;5043288;28;20140;-40
2023/07/09 00:35:16;;;;;;;6.82;2.50;;;;;;;18.96;68.56;100278.59;5044827;28;20037;-46
2023/07/09 00:37:45;;;;;;;6.68;2.28;;;;;;;18.92;68.74;100283.09;5043439;28;21356;-42
2023/07/09 00:40:16;;;;;;;6.68;2.92;;;;;;;18.89;68.68;100283.22;5039465;28;20046;-52
2023/07/09 00:42:46;;;;;;;5.45;2.83;;;;;;;18.86;68.69;100289.44;5045117;28;20153;-51
2023/07/09 00:45:24;;;;;;;10.13;4.65;;;;;;;18.78;69.08;100285.34;5042019;28;20045;-46
2023/07/09 00:47:56;;;;;;;5.18;3.58;;;;;;;18.80;69.06;100288.75;5037185;28;20536;-49
2023/07/09 00:55:58;;;;;;;9.80;1.92;;;;;;;18.73;68.78;100283.72;5061215;28;20383;-48
2023/07/09 00:58:27;;;;;;;6.93;2.10;;;;;;;18.70;68.62;100283.81;5056756;28;20460;-49
2023/07/09 01:01:02;;;;;;;3.05;1.70;;;;;;;18.68;68.81;100280.38;5056718;28;20053;-47
2023/07/09 01:03:42;;;;;;;5.32;2.05;;;;;;;18.61;68.91;100278.88;5047416;28;20080;-48
2023/07/09 01:06:10;;;;;;;5.45;1.92;;;;;;;18.63;69.09;100282.31;5046454;28;20577;-47
2023/07/09 01:08:43;;;;;;;6.63;2.33;;;;;;;18.61;69.12;100284.97;5050127;28;20075;-53
2023/07/09 01:11:21;;;;;;;5.80;2.53;;;;;;;18.57;69.07;100292.97;5044970;28;20507;-50
2023/07/09 01:13:52;;;;;;;5.82;2.08;;;;;;;18.58;69.18;100284.22;5044512;28;20056;-50
2023/07/09 01:16:23;;;;;;;6.43;2.22;;;;;;;18.56;68.98;100291.28;5056075;28;20045;-48
2023/07/09 01:18:51;;;;;;;4.40;2.03;;;;;;;18.54;69.39;100293.09;5046069;28;20080;-45
2023/07/09 01:21:19;;;;;;;4.32;1.98;;;;;;;18.52;69.17;100284.41;5049780;28;20041;-44
2023/07/09 01:23:48;;;;;;;9.57;2.22;;;;;;;18.51;69.31;100283.56;5041721;28;20045;-45
2023/07/09 01:26:18;;;;;;;9.02;2.42;;;;;;;18.52;69.52;100289.66;5049886;28;20136;-49
2023/07/09 01:28:45;;;;;;;8.85;1.83;;;;;;;18.47;70.11;100292.41;5053734;28;20063;-51
2023/07/09 01:31:14;;;;;;;5.18;1.80;;;;;;;18.46;69.55;100291.59;5040268;28;20056;-49
2023/07/09 01:33:44;;;;;;;8.20;2.08;;;;;;;18.45;69.86;100289.88;5044937;28;20053;-47
2023/07/09 01:36:14;;;;;;;7.80;2.20;;;;;;;18.43;69.72;100296.91;5051569;28;20056;-50
2023/07/09 01:38:42;;;;;;;5.85;2.15;;;;;;;18.39;69.68;100300.53;5055389;28;20055;-49
2023/07/09 01:41:13;;;;;;;5.07;2.38;;;;;;;18.37;70.15;100291.84;5036646;28;20065;-43
2023/07/09 01:43:41;;;;;;;7.18;2.33;;;;;;;18.36;69.80;100287.53;5052111;28;20689;-50
2023/07/09 01:46:09;;;;;;;5.13;2.15;;;;;;;18.34;69.98;100299.84;5051201;28;20048;-48
2023/07/09 01:48:40;;;;;;;5.25;1.60;;;;;;;18.30;69.92;100293.81;5055021;28;20052;-54
2023/07/09 01:51:09;;;;;;;8.50;1.90;;;;;;;18.29;70.11;100293.84;5046725;28;20049;-45
2023/07/09 01:53:37;;;;;;;4.85;1.90;;;;;;;18.27;69.66;100295.69;5055954;28;20071;-56
2023/07/09 01:56:07;;;;;;;7.82;2.03;;;;;;;18.22;70.24;100286.22;5051710;28;20056;-54
2023/07/09 01:58:34;;;;;;;;;;;;;;;17.99;69.99;100286.84;5053412;28;20068;-44
2023/07/09 02:01:00;;;;;;;5.90;2.20;;;;;;;18.11;69.60;100285.69;5053985;28;19920;-46
2023/07/09 02:03:28;;;;;;;6.45;1.80;;;;;;;18.10;69.60;100283.94;5049676;28;20045;-46
2023/07/09 02:05:55;;;;;;;6.65;1.80;;;;;;;18.08;70.13;100280.50;5039892;28;20053;-42
2023/07/09 02:08:21;;;;;;;5.85;2.05;;;;;;;18.05;70.04;100277.94;5035717;28;20404;-46
2023/07/09 02:10:49;;;;;;;4.72;1.95;;;;;;;18.02;70.44;100280.66;5027730;28;20501;-50
2023/07/09 02:13:16;;;;;;;4.97;2.15;;;;;;;17.96;70.51;100282.56;5030633;28;20525;-48
2023/07/09 02:15:43;;;;;;;5.80;2.33;;;;;;;17.92;70.25;100280.94;5045515;28;20049;-48
2023/07/09 02:18:14;;;;;;;6.78;2.50;;;;;;;17.88;70.29;100284.56;5031269;28;20057;-47
2023/07/09 02:20:41;;;;;;;7.68;2.38;;;;;;;17.85;70.01;100289.88;5032398;28;20049;-49
2023/07/09 02:23:08;;;;;;;8.20;2.03;;;;;;;17.80;70.68;100292.63;5029885;28;20041;-46
2023/07/09 02:25:35;;;;;;;5.65;2.20;;;;;;;17.77;69.98;100297.13;5037235;28;20041;-46
2023/07/09 02:28:01;;;;;;;7.75;2.50;;;;;;;17.73;70.40;100291.97;5030188;28;20056;-52
2023/07/09 02:30:28;;;;;;;6.30;2.55;;;;;;;17.71;70.69;100295.53;5037662;28;20142;-44
2023/07/09 02:32:55;;;;;;;8.45;2.17;;;;;;;17.67;70.32;100281.66;5030398;28;20049;-44
2023/07/09 02:35:22;;;;;;;10.52;2.03;;;;;;;17.64;70.58;100281.75;5035780;28;20041;-50
2023/07/09 02:37:49;;;;;;;6.63;1.90;;;;;;;17.60;70.23;100280.97;5029368;28;20124;-40
2023/07/09 02:40:16;;;;;;;5.60;2.28;;;;;;;17.57;70.11;100286.28;5033920;28;20501;-49
2023/07/09 02:42:43;;;;;;;3.75;2.22;;;;;;;17.54;70.21;100290.78;5040264;28;20060;-47
2023/07/09 02:45:10;;;;;;;8.32;2.33;;;;;;;17.51;70.67;100285.59;5032293;28;20049;-50
2023/07/09 02:47:37;;;;;;;5.55;1.95;;;;;;;17.50;70.17;100291.75;5030138;28;20080;-47
2023/07/09 02:50:04;;;;;;;5.57;2.03;;;;;;;17.45;70.35;100292.75;5032758;28;20053;-46
2023/07/09 02:52:31;;;;;;;10.93;2.25;;;;;;;17.44;70.96;100291.03;5039064;28;20045;-49
2023/07/09 02:54:58;;;;;;;8.45;2.22;;;;;;;17.43;70.97;100298.94;5031544;28;20106;-46
2023/07/09 02:57:24;;;;;;;11.60;2.47;;;;;;;17.39;70.85;100300.75;5041152;28;20049;-49
2023/07/09 02:59:51;;;;;;;8.85;2.22;;;;;;;17.36;70.48;100303.44;5037650;28;20053;-44
2023/07/09 03:02:18;;;;;;;5.15;2.33;;;;;;;17.33;71.31;100304.41;5040851;28;20044;-46
2023/07/09 03:04:44;;;;;;;5.70;1.92;;;;;;;17.30;70.29;100308.88;5028037;28;20386;-48
2023/07/09 03:07:11;;;;;;;5.43;2.00;;;;;;;17.27;71.06;100309.81;5026982;28;20063;-47
2023/07/09 03:09:37;;;;;;;8.73;1.90;;;;;;;17.25;70.73;100321.22;5031295;28;20045;-47
2023/07/09 03:12:05;;;;;;;7.53;2.10;;;;;;;17.21;70.82;100321.31;5024665;28;20056;-48
2023/07/09 03:14:32;;;;;;;5.93;2.22;;;;;;;17.18;70.84;100324.00;5024689;28;20142;-47
2023/07/09 03:16:59;;;;;;;5.78;2.28;;;;;;;17.13;71.46;100333.72;5028497;28;20081;-43
2023/07/09 03:19:26;;;;;;;9.50;2.40;;;;;;;17.08;70.99;100331.22;5027494;28;20047;-41
2023/07/09 03:21:52;;;;;;;6.20;2.45;;;;;;;17.07;71.21;100323.41;5028725;28;20045;-46
2023/07/09 03:24:19;;;;;;;7.72;2.22;;;;;;;17.04;70.92;100312.97;5027438;28;20045;-48
2023/07/09 03:26:47;;;;;;;11.73;2.22;;;;;;;17.01;71.36;100318.28;5029433;28;20072;-44
2023/07/09 03:29:14;;;;;;;8.48;2.42;;;;;;;16.99;71.07;100325.34;5025293;28;20073;-49
2023/07/09 03:31:40;;;;;;;7.93;2.55;;;;;;;16.98;71.78;100326.25;5008111;28;20049;-49
2023/07/09 03:34:07;;;;;;;14.38;3.47;;;;;;;16.99;70.78;100330.56;5028026;28;20049;-44
2023/07/09 03:36:37;;;;;;;9.10;3.25;;;;;;;17.00;71.26;100325.31;5028066;28;20041;-41
2023/07/09 03:39:05;;;;;;;9.82;2.80;;;;;;;17.00;71.51;100321.81;5041482;28;20049;-48
2023/07/09 03:41:32;;;;;;;7.38;2.65;;;;;;;17.01;71.36;100318.28;5036082;28;20501;-48
2023/07/09 03:43:59;;;;;;;11.60;3.10;;;;;;;17.00;70.94;100322.69;5037498;28;20053;-44
2023/07/09 03:46:26;;;;;;;12.05;2.78;;;;;;;17.02;71.17;100317.41;5035573;28;20111;-47
2023/07/09 03:48:52;;;;;;;9.25;2.60;;;;;;;17.01;71.83;100324.41;5030946;28;20053;-47
2023/07/09 03:51:19;;;;;;;9.88;2.97;;;;;;;17.01;71.81;100334.00;5027393;28;20076;-46
2023/07/09 03:53:46;;;;;;;8.52;3.33;;;;;;;16.99;71.27;100339.25;5022895;28;22017;-43
2023/07/09 03:56:13;;;;;;;8.82;3.38;;;;;;;17.00;71.14;100345.34;5033204;28;20718;-49
2023/07/09 03:58:39;;;;;;;6.70;3.40;;;;;;;16.97;71.94;100346.31;5036498;28;20436;-46
2023/07/09 04:01:06;;;;;;;10.63;3.10;;;;;;;16.96;71.36;100337.59;5029555;28;20042;-46
2023/07/09 04:03:33;;;;;;;6.78;2.75;;;;;;;16.95;71.96;100329.75;5038439;28;20041;-47
2023/07/09 04:06:00;;;;;;;15.18;3.80;;;;;;;16.94;71.72;100314.97;5033640;28;20051;-46
2023/07/09 04:08:27;;;;;;;12.82;3.42;;;;;;;16.95;71.09;100328.03;5037582;28;20041;-49
2023/07/09 04:10:56;;;;;;;11.00;3.50;;;;;;;16.93;71.76;100332.41;5034170;28;20052;-53
2023/07/09 04:13:23;;;;;;;10.88;3.63;;;;;;;16.92;71.33;100338.56;5033425;28;20048;-44
2023/07/09 04:15:49;;;;;;;9.20;3.70;;;;;;;16.93;71.42;100342.03;5034156;28;20387;-49
2023/07/09 04:18:16;;;;;;;10.77;3.63;;;;;;;16.90;71.08;100331.66;5040904;28;20410;-44
2023/07/09 04:20:43;;;;;;;7.45;3.45;;;;;;;16.90;71.22;100337.75;5026350;28;20052;-51
2023/07/09 04:23:11;;;;;;;10.57;3.55;;;;;;;16.90;71.58;100332.50;5025057;28;20057;-51
2023/07/09 04:25:37;;;;;;;10.07;3.63;;;;;;;16.91;71.65;100338.59;5030216;28;20050;-50
2023/07/09 04:28:04;;;;;;;10.25;3.83;;;;;;;16.91;71.70;100344.69;5033518;28;20172;-45
2023/07/09 04:30:31;;;;;;;13.55;3.53;;;;;;;16.93;71.86;100348.13;5031272;28;20041;-42
2023/07/09 04:32:58;;;;;;;15.07;4.03;;;;;;;16.94;71.56;100342.00;5035207;28;20048;-51
2023/07/09 04:35:24;;;;;;;12.55;4.32;;;;;;;16.95;72.09;100338.50;5038493;28;20102;-48
2023/07/09 04:37:51;;;;;;;13.18;4.45;;;;;;;16.97;71.77;100343.69;5032732;28;20055;-50
2023/07/09 04:40:19;;;;;;;11.18;3.67;;;;;;;16.99;71.62;100349.72;5031699;28;20045;-48
2023/07/09 04:42:45;;;;;;;12.85;4.30;;;;;;;17.01;71.34;100352.31;5031880;28;20045;-48
2023/07/09 04:45:13;;;;;;;11.52;4.72;;;;;;;17.01;71.65;100350.56;5034018;28;20080;-47
2023/07/09 04:47:39;;;;;;;9.68;3.78;;;;;;;17.03;72.03;100350.53;5039239;28;20723;-47
2023/07/09 04:50:08;;;;;;;11.63;4.70;;;;;;;17.06;72.11;100342.63;5025859;28;20508;-48
2023/07/09 04:52:35;;;;;;;13.15;4.78;;;;;;;17.08;71.90;100335.59;5026863;28;20060;-48
2023/07/09 04:55:02;;;;;;;14.57;4.25;;;;;;;17.13;71.79;100338.09;5036167;28;20041;-40
2023/07/09 04:57:29;;;;;;;14.15;4.32;;;;;;;17.15;71.67;100337.16;5038836;28;20056;-46
2023/07/09 04:59:55;;;;;;;12.32;4.43;;;;;;;17.18;72.04;100331.84;5035692;28;20045;-45
2023/07/09 05:02:23;;;;;;;8.23;4.00;;;;;;;17.20;72.08;100330.03;5037240;28;20045;-45
2023/07/09 05:04:50;;;;;;;10.80;3.80;;;;;;;17.23;72.20;100330.88;5032314;28;20067;-45
2023/07/09 05:07:17;;;;;;;10.18;4.15;;;;;;;17.21;72.18;100331.78;5032472;28;20080;-41
2023/07/09 05:09:44;;;;;;;12.30;4.30;;;;;;;17.23;71.87;100343.94;5029722;28;20068;-45
2023/07/09 05:12:10;;;;;;;14.35;4.40;;;;;;;17.23;71.77;100343.94;5035852;28;20564;-43
2023/07/09 05:14:37;;;;;;;12.95;4.10;;;;;;;17.24;71.93;100343.03;5027599;28;20408;-49
2023/07/09 05:17:04;;;;;;;9.93;3.97;;;;;;;17.24;71.66;100340.44;5033632;28;20045;-49
2023/07/09 05:19:31;;;;;;;10.57;3.60;;;;;;;17.26;71.82;100341.25;5017005;28;20049;-50
2023/07/09 05:21:58;;;;;;;10.13;3.95;;;;;;;17.25;71.25;100339.56;5033782;28;20052;-43
2023/07/09 05:24:25;;;;;;;11.00;3.88;;;;;;;17.24;71.48;100346.53;5036529;28;20049;-52
2023/07/09 05:26:54;;;;;;;16.33;3.67;;;;;;;17.25;70.94;100339.56;5031828;28;20137;-48
2023/07/09 05:29:21;;;;;;;7.10;3.53;;;;;;;17.24;71.89;100337.81;5024126;28;20398;-45
2023/07/09 05:31:48;;;;;;;11.85;3.42;;;;;;;17.24;71.64;100345.66;5035188;28;20041;-49
2023/07/09 05:34:15;;;;;;;10.27;4.10;;;;;;;17.20;71.41;100353.59;5027366;28;20049;-48
2023/07/09 05:36:41;;;;;;;10.27;3.80;;;;;;;17.22;71.51;100361.41;5033695;28;20057;-46
2023/07/09 05:39:08;;;;;;;11.73;4.60;;;;;;;17.21;70.92;100363.19;5035235;28;20615;-42
2023/07/09 05:41:35;;;;;;;10.85;4.45;;;;;;;17.20;71.41;100361.44;5037148;28;20053;-48
2023/07/09 05:44:02;;;;;;;13.50;4.10;;;;;;;17.20;71.11;100371.91;5033328;28;20048;-45
2023/07/09 05:46:28;;;;;;;15.00;4.28;;;;;;;17.20;71.00;100366.69;5036874;28;21500;-48
2023/07/09 05:48:55;;;;;;;10.43;4.18;;;;;;;17.23;71.33;100367.50;5029510;28;20136;-46
2023/07/09 05:51:24;;;;;;;11.68;4.28;;;;;;;17.25;71.76;100368.34;5031064;28;20049;-49
2023/07/09 05:53:50;;;;;;;10.05;3.80;;;;;;;17.27;71.39;100358.69;5040600;28;20103;-47
2023/07/09 05:56:17;;;;;;;9.90;3.67;;;;;;;17.29;72.04;100362.13;5030394;28;20459;-43
2023/07/09 05:58:44;;;;;;;10.13;2.92;;;;;;;17.32;71.59;100362.03;5039256;28;20045;-43
2023/07/09 06:01:10;;;;;;;10.57;3.22;;;;;;;17.34;71.54;100363.72;5034844;28;20047;-49
2023/07/09 06:03:37;;;;;;;13.18;3.33;;;;;;;17.39;72.45;100366.22;5036746;28;20061;-51
2023/07/09 06:06:06;;;;;;;11.48;3.35;;;;;;;17.45;71.92;100380.91;5033566;28;20053;-49
2023/07/09 06:08:32;;;;;;;8.07;2.83;;;;;;;17.52;71.58;100381.59;5042471;28;20045;-49
2023/07/09 06:11:01;;;;;;;7.95;3.30;;;;;;;17.60;72.22;100390.13;5039507;28;20053;-48
2023/07/09 06:13:30;;;;;;;15.07;3.47;;;;;;;17.68;71.56;100382.91;5038299;28;20092;-47
2023/07/09 06:15:59;;;;;;;10.38;3.15;;;;;;;17.71;71.67;100382.84;5042572;28;20052;-42
2023/07/09 06:18:30;;;;;;;14.57;3.63;;;;;;;17.77;72.35;100375.72;5040592;28;20041;-42
2023/07/09 06:20:59;;;;;;;10.75;4.03;;;;;;;17.81;71.73;100382.56;5039562;28;20063;-46
2023/07/09 06:23:26;;;;;;;14.90;4.45;;;;;;;17.87;72.48;100398.16;5029433;28;20045;-48
2023/07/09 06:25:53;;;;;;;11.23;3.05;;;;;;;17.95;71.89;100393.53;5039264;28;20042;-47
2023/07/09 06:28:24;;;;;;;9.45;2.50;;;;;;;18.05;71.91;100401.13;5033699;28;20053;-44
2023/07/09 06:30:51;;;;;;;5.93;2.20;;;;;;;18.10;71.41;100409.75;5031961;28;20057;-46
2023/07/09 06:33:19;;;;;;;9.05;2.83;;;;;;;18.13;71.73;100399.19;5039817;28;20048;-48
2023/07/09 06:35:47;;;;;;;9.40;2.70;;;;;;;18.19;71.50;100414.75;5034687;28;20091;-46
2023/07/09 06:38:15;;;;;;;8.30;2.45;;;;;;;18.23;71.52;100420.75;5039505;28;20088;-41
2023/07/09 06:40:41;;;;;;;15.02;3.10;;;;;;;18.30;71.61;100422.28;5035467;28;20068;-44
2023/07/09 06:43:08;;;;;;;8.68;2.60;;;;;;;18.37;71.67;100430.81;5038733;28;20045;-43
2023/07/09 06:45:35;;;;;;;11.48;2.53;;;;;;;18.43;71.83;100432.41;5029599;28;20041;-45
2023/07/09 06:48:02;;;;;;;7.53;2.53;;;;;;;18.46;71.73;100433.19;5037554;28;20048;-43
2023/07/09 06:50:28;;;;;;;8.65;2.38;;;;;;;18.50;71.81;100429.56;5030315;28;20071;-40
2023/07/09 06:52:55;;;;;;;7.70;2.10;;;;;;;18.53;71.50;100439.13;5037539;28;20083;-49
2023/07/09 06:55:22;;;;;;;7.60;2.47;;;;;;;18.55;71.85;100442.56;5034364;28;20726;-46
2023/07/09 06:57:49;;;;;;;8.90;2.58;;;;;;;18.59;71.36;100448.56;5029767;28;20052;-43
2023/07/09 07:00:16;;;;;;;9.68;1.95;;;;;;;18.60;71.44;100434.53;5035067;28;20129;-47
2023/07/09 07:02:42;;;;;;;12.40;2.65;;;;;;;18.62;71.67;100443.22;5031274;28;20045;-47
2023/07/09 07:05:09;;;;;;;12.18;2.65;;;;;;;18.64;70.92;100433.53;5038389;28;20049;-43
2023/07/09 07:07:36;;;;;;;8.50;2.40;;;;;;;18.68;70.99;100429.91;5040713;28;20049;-50
2023/07/09 07:10:03;;;;;;;18.13;2.70;;;;;;;18.73;70.91;100435.91;5026726;28;20053;-48
2023/07/09 07:12:41;;;;;;;8.13;2.08;;;;;;;18.78;71.21;100455.88;5031893;28;20132;-46
2023/07/09 07:15:08;;;;;;;8.43;2.15;;;;;;;18.81;71.12;100458.41;5022847;28;20052;-50
2023/07/09 07:17:35;;;;;;;8.30;1.80;;;;;;;18.83;70.67;100469.72;5037922;28;20413;-48
2023/07/09 07:20:02;;;;;;;12.15;2.20;;;;;;;18.85;70.58;100470.53;5036007;28;20532;-46
2023/07/09 07:22:29;;;;;;;8.98;2.35;;;;;;;18.84;70.71;100474.03;5034578;28;20405;-46
2023/07/09 07:24:55;;;;;;;8.63;2.58;;;;;;;18.87;70.69;100473.97;5040871;28;20062;-46
2023/07/09 07:27:22;;;;;;;8.13;2.17;;;;;;;18.89;70.53;100472.16;5020437;28;20666;-43
2023/07/09 07:29:49;;;;;;;8.63;2.50;;;;;;;18.90;70.41;100481.75;5033365;28;20049;-40
2023/07/09 07:32:15;;;;;;;9.32;2.30;;;;;;;18.93;70.47;100479.03;5036939;28;20502;-49
2023/07/09 07:34:42;;;;;;;5.03;2.15;;;;;;;18.98;70.42;100474.47;5031397;28;20049;-44
2023/07/09 07:37:09;;;;;;;9.77;2.15;;;;;;;19.03;70.53;100469.09;5034443;28;20038;-41
2023/07/09 07:39:35;;;;;;;10.70;2.25;;;;;;;19.09;70.75;100483.84;5032020;28;20045;-47
2023/07/09 07:42:02;;;;;;;10.18;2.05;;;;;;;19.13;70.85;100491.56;5039059;28;20556;-48
2023/07/09 07:44:32;;;;;;;9.25;2.28;;;;;;;19.17;70.59;100492.31;5039417;28;20052;-48
2023/07/09 07:46:59;;;;;;;8.15;2.47;;;;;;;19.19;70.62;100490.53;5038355;28;20456;-43
2023/07/09 07:49:26;;;;;;;11.13;2.85;;;;;;;19.20;69.91;100486.09;5031044;28;20045;-50
2023/07/09 07:51:53;;;;;;;10.80;2.03;;;;;;;19.20;69.99;100488.72;5032821;28;20680;-42
2023/07/09 07:54:19;;;;;;;7.82;1.58;;;;;;;19.18;69.59;100483.53;5030308;28;20052;-44
2023/07/09 07:56:46;;;;;;;7.28;1.88;;;;;;;19.18;70.14;100478.28;5026095;28;20061;-46
2023/07/09 07:59:14;;;;;;;9.25;2.15;;;;;;;19.19;69.54;100482.66;5039266;28;20049;-44
2023/07/09 08:01:40;;;;;;;9.68;1.92;;;;;;;19.19;69.68;100474.75;5034396;28;20058;-45
2023/07/09 08:04:07;;;;;;;8.10;1.75;;;;;;;19.18;69.67;100478.28;5032280;28;20111;-43
2023/07/09 08:06:34;;;;;;;8.45;1.73;;;;;;;19.18;69.54;100488.78;5033262;28;20045;-46
2023/07/09 08:09:00;;;;;;;7.30;1.85;;;;;;;19.17;69.17;100497.56;5035095;28;20056;-40
2023/07/09 08:11:29;;;;;;;7.10;1.63;;;;;;;19.17;69.56;100508.06;5035091;28;20045;-47
2023/07/09 08:13:56;;;;;;;6.45;1.92;;;;;;;19.15;69.58;100520.38;5029705;28;20057;-46
2023/07/09 08:16:23;;;;;;;6.10;1.60;;;;;;;19.13;68.94;100514.31;5039877;28;20045;-43
2023/07/09 08:18:51;;;;;;;8.50;1.80;;;;;;;19.11;69.70;100498.63;5033254;28;20417;-42
2023/07/09 08:21:18;;;;;;;4.88;1.90;;;;;;;19.09;69.69;100483.84;5036766;28;20547;-40
2023/07/09 08:23:45;;;;;;;5.88;1.83;;;;;;;19.08;69.37;100466.38;5024821;28;20050;-50
2023/07/09 08:26:12;;;;;;;7.55;1.70;;;;;;;19.07;69.42;100470.75;5030102;28;20041;-49
2023/07/09 08:28:39;;;;;;;5.05;1.88;;;;;;;19.06;69.37;100466.41;5027861;28;20053;-41
2023/07/09 08:31:05;;;;;;;5.10;1.38;;;;;;;19.08;69.36;100450.63;5032648;28;20572;-45
2023/07/09 08:33:33;;;;;;;3.45;1.48;;;;;;;19.10;69.03;100433.03;5033783;28;20120;-46
2023/07/09 08:36:00;;;;;;;7.00;1.70;;;;;;;19.13;69.40;100432.94;5036815;28;20041;-41
2023/07/09 08:38:27;;;;;;;5.35;1.67;;;;;;;19.18;69.32;100452.03;5035780;28;20044;-49
2023/07/09 08:41:17;;;;;;;10.05;2.10;;;;;;;19.19;69.36;100448.50;5026290;28;20041;-48
2023/07/09 08:46:54;;;;;;;6.07;1.92;;;;;;;19.35;69.95;100390.22;5056318;28;20379;-50
2023/07/09 08:49:31;;;;;;;7.63;2.10;;;;;;;19.44;68.92;100408.28;5056224;28;20044;-45
2023/07/09 08:51:58;;;;;;;9.45;2.05;;;;;;;19.48;68.87;100414.28;5059852;28;20041;-49
2023/07/09 08:54:34;;;;;;;7.45;2.17;;;;;;;19.50;68.52;100420.34;5062776;28;20044;-53
2023/07/09 08:57:16;;;;;;;7.57;2.42;;;;;;;19.51;68.50;100416.81;5075363;28;20071;-50
2023/07/09 08:59:44;;;;;;;5.60;2.00;;;;;;;19.55;68.80;100425.47;5074555;28;20045;-50
2023/07/09 09:02:27;;;;;;;7.25;2.40;;;;;;;19.53;68.77;100439.47;5076831;28;20059;-45
2023/07/09 09:04:53;;;;;;;6.65;2.15;;;;;;;19.52;68.54;100445.66;5071813;28;20128;-40
2023/07/09 09:07:34;;;;;;;5.82;2.45;;;;;;;19.53;68.90;100457.88;5069396;28;20048;-45
2023/07/09 09:10:02;;;;;;;9.75;2.25;;;;;;;19.55;69.15;100463.06;5057840;28;20040;-48
2023/07/09 09:12:38;;;;;;;10.23;2.25;;;;;;;19.56;68.54;100456.06;5070061;28;20067;-46
2023/07/09 09:17:44;;;;;;;5.38;2.90;;;;;;;19.65;69.33;100463.63;5065691;28;20393;-50
2023/07/09 09:20:19;;;;;;;7.72;2.63;;;;;;;19.74;68.94;100460.69;5041095;28;20520;-45
2023/07/09 09:22:52;;;;;;;12.25;3.00;;;;;;;19.84;68.62;100466.50;5045482;28;20044;-44
2023/07/09 09:25:27;;;;;;;7.57;3.10;;;;;;;19.96;68.58;100452.03;5040236;28;20037;-50
2023/07/09 09:27:54;;;;;;;6.15;3.08;;;;;;;20.13;68.72;100445.38;5041592;28;20053;-53
2023/07/09 09:30:23;;;;;;;5.78;2.75;;;;;;;20.27;67.88;100453.59;5046150;28;20080;-48
2023/07/09 09:35:32;;;;;;;6.95;1.42;;;;;;;20.47;67.67;100454.59;5041483;28;22339;-51
2023/07/09 09:37:59;;;;;;;5.53;1.40;;;;;;;20.51;67.42;100445.72;5009373;28;20046;-48
2023/07/09 09:40:28;;;;;;;5.57;1.83;;;;;;;20.61;67.59;100445.34;5004565;28;20049;-47
2023/07/09 09:42:57;;;;;;;5.82;1.58;;;;;;;20.71;67.90;100451.97;5002657;28;20062;-47
2023/07/09 09:45:33;;;;;;;4.97;1.20;;;;;;;20.80;67.42;100466.53;5002855;28;20125;-50
2023/07/09 09:48:10;;;;;;;5.55;1.90;;;;;;;20.87;66.70;100472.44;5003485;28;20080;-42
2023/07/09 09:50:36;;;;;;;6.72;1.75;;;;;;;20.91;66.40;100474.91;4999434;28;20115;-47
2023/07/09 09:53:07;;;;;;;3.38;1.42;;;;;;;20.96;66.65;100477.38;5007003;28;20053;-47
2023/07/09 09:55:34;;;;;;;8.55;1.20;;;;;;;21.00;66.18;100484.22;5003212;28;20057;-52
2023/07/09 09:58:02;;;;;;;5.70;1.80;;;;;;;21.12;66.20;100476.75;5002885;28;20053;-49
2023/07/09 10:00:33;;;;;;;4.60;1.38;;;;;;;21.26;66.47;100477.06;5002028;28;20390;-46
2023/07/09 10:03:03;;;;;;;7.30;1.85;;;;;;;21.40;66.00;100489.66;5003429;28;20095;-51
2023/07/09 10:05:38;;;;;;;4.93;1.30;;;;;;;21.55;65.22;100490.78;4997698;28;20061;-47
2023/07/09 10:08:16;;;;;;;7.45;1.73;;;;;;;21.69;64.82;100492.00;5010412;28;20057;-47
2023/07/09 10:10:45;;;;;;;5.93;1.67;;;;;;;21.79;64.93;100493.34;5003798;28;20108;-50
2023/07/09 10:13:29;;;;;;;4.10;1.05;;;;;;;21.87;64.42;100492.16;5003220;28;20046;-43
2023/07/09 10:18:50;;;;;;;5.75;1.30;;;;;;;22.11;63.25;100502.53;5041223;28;20898;-44
2023/07/09 10:21:31;;;;;;;8.25;1.40;;;;;;;22.23;63.17;100498.53;5023914;28;20049;-49
2023/07/09 10:26:51;;;;;;;3.95;2.33;;;;;;;22.63;63.01;100503.81;5049187;27;20758;-47
2023/07/09 10:32:35;;;;;;;2.72;0.93;;;;;;;22.62;60.04;100502.94;5058389;28;20870;-43
2023/07/09 10:37:54;;;;;;;4.93;0.70;;;;;;;22.64;58.29;100502.88;5057005;28;20380;-49
2023/07/09 10:40:36;;;;;;;3.45;0.70;;;;;;;22.80;59.52;100493.31;5031066;28;20140;-48
2023/07/09 10:43:05;;;;;;;3.13;0.95;;;;;;;23.02;58.70;100489.66;5031659;28;20037;-45
2023/07/09 10:45:41;;;;;;;5.32;0.70;;;;;;;23.25;58.44;100485.03;5014878;28;20052;-44
2023/07/09 10:48:16;;;;;;;4.18;0.90;;;;;;;23.53;59.14;100483.69;5053064;28;20048;-43
2023/07/09 10:50:50;;;;;;;6.18;0.90;;;;;;;23.87;58.84;100481.97;5038370;28;20046;-49
2023/07/09 10:53:33;;;;;;;5.00;0.82;;;;;;;24.13;58.48;100482.44;5031877;28;20045;-47
2023/07/09 10:56:10;;;;;;;3.08;1.25;;;;;;;24.31;56.86;100486.81;5029148;28;20611;-49
2023/07/09 10:58:54;;;;;;;2.90;0.98;;;;;;;24.47;56.91;100487.69;5020336;28;20056;-50
2023/07/09 11:01:31;;;;;;;3.20;0.98;;;;;;;24.62;55.54;100480.69;5027052;28;20061;-54
2023/07/09 11:04:18;;;;;;;4.10;0.70;;;;;;;24.65;54.99;100477.00;5034645;28;20115;-47
2023/07/09 11:06:49;;;;;;;4.10;1.58;;;;;;;24.68;54.03;100471.56;5021548;28;20042;-49
2023/07/09 11:09:27;;;;;;;3.65;0.90;;;;;;;24.73;54.46;100471.31;5030828;28;20045;-52
2023/07/09 11:11:56;;;;;;;2.65;0.93;;;;;;;24.80;53.33;100470.03;5032284;28;20416;-47
2023/07/09 11:17:14;;;;;;;2.88;1.13;;;;;;;24.94;51.17;100466.63;5059569;27;20382;-49
2023/07/09 11:19:46;;;;;;;5.05;0.77;;;;;;;25.02;50.87;100468.81;5021003;28;20046;-45
2023/07/09 11:22:19;;;;;;;3.92;0.90;;;;;;;25.06;51.51;100467.69;5023235;28;20128;-45
2023/07/09 11:24:53;;;;;;;2.67;0.88;;;;;;;25.17;50.34;100459.16;5016605;28;20505;-49
2023/07/09 11:27:26;;;;;;;3.80;1.13;;;;;;;25.28;49.82;100461.16;5008777;28;20050;-47
2023/07/09 11:29:59;;;;;;;4.30;1.17;;;;;;;25.34;49.74;100458.16;5014308;28;20147;-45
2023/07/09 11:32:28;;;;;;;3.45;0.95;;;;;;;25.48;49.46;100456.50;5012843;28;20052;-48
2023/07/09 11:35:06;;;;;;;2.50;0.60;;;;;;;25.55;47.80;100460.50;5011023;28;20042;-55
2023/07/09 11:37:44;;;;;;;3.33;0.93;;;;;;;25.48;46.54;100459.13;5012228;28;20046;-47
2023/07/09 11:40:13;;;;;;;5.25;0.75;;;;;;;25.61;47.89;100454.00;5014562;28;20057;-46
2023/07/09 11:42:58;;;;;;;3.42;0.50;;;;;;;25.70;46.99;100448.13;5015395;28;20050;-47
2023/07/09 11:45:28;;;;;;;2.65;0.80;;;;;;;25.69;46.09;100454.38;5007100;28;20038;-46
2023/07/09 11:48:19;;;;;;;1.58;0.73;;;;;;;25.74;46.34;100454.13;5014575;28;20137;-46
2023/07/09 11:50:49;;;;;;;3.25;0.50;;;;;;;25.78;45.88;100450.31;4997593;28;20110;-46
2023/07/09 11:55:53;;;;;;;2.85;0.80;;;;;;;25.99;46.04;100442.84;5077648;27;20394;-49
2023/07/09 11:58:19;;;;;;;2.90;0.52;;;;;;;25.98;45.61;100435.00;5034675;28;20037;-48
2023/07/09 12:00:53;;;;;;;2.45;1.10;;;;;;;26.04;45.07;100434.63;5043704;28;20056;-43
2023/07/09 12:03:25;;;;;;;2.75;0.88;;;;;;;26.09;45.99;100432.53;5043767;28;20450;-46